Terminal Aerodrome Forecast
Issued by NWS

Home | Current Version | Previous Version | Text Only | Print | Product List | Glossary On
Versions: 1 2 3 4 5 6 7 8 9 10 11 12 13 14 15 16 17
000
FTAK31 PANC 252331
TAFADL
TAF
PADL 252331Z 2600/2624 18015G25KT P6SM -SHRA SCT025 OVC035
      TEMPO 2600/2602 BKN025
     FM260500 17008KT P6SM -SHRA SCT025 BKN035
     FM261000 15005KT P6SM SCT025 OVC035
     FM262100 17012G19KT P6SM OVC025=

USA.gov is the U.S. government's official web portal to all federal, state and local government web resources and services.